首页
METAR-TAF:

METAR-TAF

机场 :

馬塔烏圖機場

瓦利斯, 法国

纬度: 13-14S, 经度: 176-10W, 海拔: 23米

当前天气观测

该预报发布于33分钟前的02:30 UTC
风速8节,风向
温度 31°C
湿度 75%
气压 1011 hPa
能见度10公里或以上

METAR: NLWW 270230Z AUTO 09008KT 9999 FEW024/// SCT031/// 31/26 Q1011 TEMPO 2500 SHRA BKN012 SCT016CB

时间: 15:03 (03:03 UTC)

预报

该预报发布于4小时和3分钟前的23:00 UTC
预报有效从27日的 00点(UTC)到 27日的 24点(UTC)
风速10节,风向
能见度10公里或以上
散云层高于2000英尺
短暂存在
从 27日的 03点(UTC)到 27日的 24点(UTC)
能見度: 4000
多云层高于1400英尺
少量云层高于2000英尺, 塔状积云.
阵雨
几率 40% :
短暂存在
从 27日的 03点(UTC)到 27日的 24点(UTC)
能見度: 2500
多云层高于1200英尺
散云层高于1600英尺, 积雨云.
阵雨

TAF: NLWW 262300Z 2700/2724 09010KT 9999 SCT020 TEMPO 2703/2724 4000 SHRA BKN014 FEW020TCU PROB40 TEMPO 2703/2724 2500 SHRA BKN012 SCT016CB

超过4000个机场的气象观测和天气预报(METAR&TAF报告)。

可查询的气象台以黄色和红色小点在地图上表示。

将鼠标移到小点上方,可查看气象台名称。

然后点击查看天气观测和预报。

如需切换地图:点击带黑十字的绿色按钮放大地图;点击带横线的绿色按钮缩小地图;或者点击绿色箭头查看邻近地区的地图。


METAR-TAF: